createdAt,value
2023-05-14T00:01:00.515Z,14.22
2023-05-14T00:03:26.933Z,14.26
2023-05-14T00:05:53.345Z,14.29
2023-05-14T00:08:19.730Z,14.34
2023-05-14T00:10:46.207Z,14.41
2023-05-14T00:13:12.512Z,14.32
2023-05-14T00:15:39.602Z,14.32
2023-05-14T00:18:07.068Z,14.22
2023-05-14T00:20:33.541Z,14.01
2023-05-14T00:22:59.876Z,13.92
2023-05-14T00:25:26.234Z,13.94
2023-05-14T00:27:52.539Z,14.04
2023-05-14T00:30:18.864Z,14.17
2023-05-14T00:32:45.218Z,14.22
2023-05-14T00:35:11.608Z,14.16
2023-05-14T00:37:38.035Z,14.13
2023-05-14T00:40:06.901Z,14.07
2023-05-14T00:42:33.354Z,14.04
2023-05-14T00:44:59.859Z,14.05
2023-05-14T00:47:26.433Z,14.12
2023-05-14T00:49:52.936Z,14.24
2023-05-14T00:52:19.831Z,14.27
2023-05-14T00:54:46.964Z,14.27
2023-05-14T00:57:13.698Z,14.28
2023-05-14T00:59:42.468Z,14.35
2023-05-14T01:02:09.521Z,14.29
2023-05-14T01:04:36.034Z,14.21
2023-05-14T01:07:10.753Z,14.22
2023-05-14T01:09:46.247Z,14.20
2023-05-14T01:12:31.599Z,14.13
2023-05-14T01:15:13.565Z,14.20
2023-05-14T01:17:46.104Z,14.18
2023-05-14T01:20:12.632Z,14.28
2023-05-14T01:22:39.887Z,14.24
2023-05-14T01:25:06.551Z,14.22
2023-05-14T01:27:56.240Z,14.18
2023-05-14T01:30:29.444Z,14.11
2023-05-14T01:32:57.891Z,14.01
2023-05-14T01:35:26.955Z,14.00
2023-05-14T01:37:57.545Z,13.98
2023-05-14T01:40:24.454Z,13.98
2023-05-14T01:42:53.957Z,14.00
2023-05-14T01:45:21.277Z,13.94
2023-05-14T01:47:51.764Z,13.96
2023-05-14T01:50:18.252Z,13.95
2023-05-14T01:52:44.704Z,13.92
2023-05-14T01:55:11.151Z,13.90
2023-05-14T01:57:37.566Z,13.92
2023-05-14T02:00:04.456Z,13.99
2023-05-14T02:02:30.865Z,13.94
2023-05-14T02:04:57.209Z,13.93
2023-05-14T02:07:23.543Z,13.99
2023-05-14T02:09:49.880Z,13.98
2023-05-14T02:12:16.328Z,14.00
2023-05-14T02:14:42.711Z,14.01
2023-05-14T02:17:09.715Z,14.05
2023-05-14T02:19:36.146Z,13.99
2023-05-14T02:22:02.554Z,13.99
2023-05-14T02:24:28.918Z,14.10
2023-05-14T02:26:55.468Z,14.15
2023-05-14T02:29:21.919Z,14.15
2023-05-14T02:31:48.397Z,14.14
2023-05-14T02:34:14.840Z,14.16
2023-05-14T02:36:41.323Z,14.17
2023-05-14T02:39:07.705Z,14.15
2023-05-14T02:41:34.116Z,14.18
2023-05-14T02:44:00.528Z,14.20
2023-05-14T02:46:27.023Z,14.03
2023-05-14T02:48:53.540Z,14.00
2023-05-14T02:51:20.907Z,13.98
2023-05-14T02:53:47.278Z,14.01
2023-05-14T02:56:13.632Z,13.99
2023-05-14T02:58:41.174Z,14.02
2023-05-14T03:01:07.770Z,14.06
2023-05-14T03:03:36.256Z,14.09
2023-05-14T03:06:03.059Z,14.14
2023-05-14T03:08:29.346Z,14.04
2023-05-14T03:10:55.805Z,14.10
2023-05-14T03:13:22.107Z,13.99
2023-05-14T03:15:48.698Z,13.89
2023-05-14T03:18:15.176Z,13.89
2023-05-14T03:20:41.701Z,13.93
2023-05-14T03:23:08.207Z,13.93
2023-05-14T03:25:34.517Z,13.92
2023-05-14T03:28:00.944Z,13.97
2023-05-14T03:30:27.421Z,14.00
2023-05-14T03:32:53.855Z,13.99
2023-05-14T03:35:20.447Z,13.83
2023-05-14T03:37:46.835Z,13.78
2023-05-14T03:40:13.269Z,13.81
2023-05-14T03:42:40.642Z,13.77
2023-05-14T03:45:07.545Z,13.85
2023-05-14T03:47:33.913Z,13.88
2023-05-14T03:50:00.384Z,13.86
2023-05-14T03:52:27.185Z,13.87
2023-05-14T03:54:53.498Z,13.91
2023-05-14T03:57:19.874Z,13.97
2023-05-14T03:59:46.217Z,14.06
2023-05-14T04:02:12.636Z,14.15
2023-05-14T04:04:40.063Z,14.06
2023-05-14T04:07:06.613Z,13.91
2023-05-14T04:09:33.688Z,13.83
2023-05-14T04:12:00.012Z,13.85
2023-05-14T04:14:26.328Z,13.92
2023-05-14T04:16:54.689Z,13.92
2023-05-14T04:19:21.048Z,13.92
2023-05-14T04:21:47.442Z,14.03
2023-05-14T04:24:13.869Z,14.10
2023-05-14T04:26:40.871Z,14.11
2023-05-14T04:29:07.233Z,14.15
2023-05-14T04:31:33.603Z,14.15
2023-05-14T04:34:00.196Z,14.21
2023-05-14T04:36:26.581Z,14.26
2023-05-14T04:38:52.873Z,14.22
2023-05-14T04:41:19.246Z,14.25
2023-05-14T04:43:47.049Z,14.25
2023-05-14T04:46:13.838Z,14.17
2023-05-14T04:48:42.802Z,14.16
2023-05-14T04:51:09.361Z,14.21
2023-05-14T04:53:36.305Z,14.22
2023-05-14T04:56:02.674Z,14.15
2023-05-14T04:58:32.754Z,14.17
2023-05-14T05:01:01.659Z,14.14
2023-05-14T05:03:28.503Z,14.08
2023-05-14T05:05:54.933Z,14.07
2023-05-14T05:08:23.888Z,14.05
2023-05-14T05:10:50.297Z,14.05
2023-05-14T05:13:17.064Z,14.03
2023-05-14T05:15:43.576Z,14.12
2023-05-14T05:18:11.053Z,14.09
2023-05-14T05:20:37.607Z,14.06
2023-05-14T05:23:03.943Z,14.05
2023-05-14T05:25:30.303Z,14.06
2023-05-14T05:27:56.863Z,14.06
2023-05-14T05:30:23.478Z,13.96
2023-05-14T05:32:50.473Z,14.09
2023-05-14T05:35:16.818Z,14.17
2023-05-14T05:37:43.218Z,14.16
2023-05-14T05:40:10.569Z,14.21
2023-05-14T05:42:36.933Z,14.14
2023-05-14T05:45:03.349Z,14.18
2023-05-14T05:47:30.174Z,14.17
2023-05-14T05:49:56.965Z,14.23
2023-05-14T05:52:23.360Z,14.25
2023-05-14T05:54:49.744Z,14.22
2023-05-14T05:57:16.132Z,14.25
2023-05-14T05:59:43.337Z,14.30
2023-05-14T06:02:11.711Z,14.34
2023-05-14T06:04:38.093Z,14.36
2023-05-14T06:07:04.527Z,14.41
2023-05-14T06:09:30.994Z,14.47
2023-05-14T06:11:57.493Z,14.53
2023-05-14T06:14:23.946Z,14.54
2023-05-14T06:16:50.412Z,14.57
2023-05-14T06:19:17.081Z,14.66
2023-05-14T06:21:44.269Z,14.58
2023-05-14T06:24:10.908Z,14.51
2023-05-14T06:26:37.225Z,14.47
2023-05-14T06:29:03.621Z,14.50
2023-05-14T06:31:30.088Z,14.53
2023-05-14T06:33:56.662Z,14.51
2023-05-14T06:36:23.155Z,14.58
2023-05-14T06:38:49.521Z,14.61
2023-05-14T06:41:16.560Z,14.66
2023-05-14T06:43:42.890Z,14.77
2023-05-14T06:46:09.771Z,14.80
2023-05-14T06:48:36.531Z,14.76
2023-05-14T06:51:03.836Z,14.74
2023-05-14T06:53:30.362Z,14.79
2023-05-14T06:55:56.884Z,14.78
2023-05-14T06:58:23.347Z,14.79
2023-05-14T07:00:49.921Z,14.87
2023-05-14T07:03:16.356Z,14.88
2023-05-14T07:05:44.826Z,14.92
2023-05-14T07:08:11.309Z,15.12
2023-05-14T07:10:39.798Z,15.15
2023-05-14T07:13:06.214Z,15.05
2023-05-14T07:15:33.001Z,15.07
2023-05-14T07:17:59.344Z,15.14
2023-05-14T07:20:26.119Z,15.23
2023-05-14T07:22:52.877Z,15.14
2023-05-14T07:25:24.771Z,15.12
2023-05-14T07:27:51.064Z,15.09
2023-05-14T07:30:17.895Z,15.02
2023-05-14T07:32:44.606Z,15.12
2023-05-14T07:35:11.706Z,15.10
2023-05-14T07:37:38.136Z,14.99
2023-05-14T07:40:04.670Z,15.01
2023-05-14T07:42:36.738Z,14.97
2023-05-14T07:45:04.390Z,14.93
2023-05-14T07:47:30.889Z,14.89
2023-05-14T07:49:57.542Z,14.92
2023-05-14T07:52:24.051Z,14.98
2023-05-14T07:54:51.187Z,14.94
2023-05-14T07:57:17.865Z,15.09
2023-05-14T07:59:44.238Z,15.01
2023-05-14T08:02:12.899Z,14.87
2023-05-14T08:04:39.782Z,14.78
2023-05-14T08:07:07.456Z,14.86
2023-05-14T08:09:33.997Z,14.91
2023-05-14T08:12:00.418Z,15.01
2023-05-14T08:14:27.000Z,15.08
2023-05-14T08:16:53.499Z,15.00
2023-05-14T08:19:20.007Z,15.08
2023-05-14T08:21:46.661Z,15.09
2023-05-14T08:24:12.992Z,14.96
2023-05-14T08:26:39.532Z,14.93
2023-05-14T08:29:15.534Z,15.02
2023-05-14T08:31:42.968Z,14.98
2023-05-14T08:34:09.852Z,14.94
2023-05-14T08:36:36.579Z,14.94
2023-05-14T08:39:02.957Z,14.90
2023-05-14T08:41:29.950Z,15.02
2023-05-14T08:43:56.368Z,15.12
2023-05-14T08:46:23.704Z,15.14
2023-05-14T08:48:55.294Z,15.39
2023-05-14T08:51:21.910Z,15.59
2023-05-14T08:53:48.238Z,15.63
2023-05-14T08:56:16.206Z,15.68
2023-05-14T08:58:42.513Z,15.80
2023-05-14T09:01:09.278Z,15.98
2023-05-14T09:03:36.373Z,16.04
2023-05-14T09:06:03.908Z,16.16
2023-05-14T09:08:30.538Z,16.26
2023-05-14T09:10:56.850Z,16.23
2023-05-14T09:13:23.260Z,16.22
2023-05-14T09:15:51.197Z,16.12
2023-05-14T09:18:17.609Z,16.08
2023-05-14T09:20:44.014Z,16.13
2023-05-14T09:23:10.748Z,16.31
2023-05-14T09:25:37.072Z,16.48
2023-05-14T09:28:06.042Z,16.72
2023-05-14T09:30:34.113Z,16.80
2023-05-14T09:33:00.695Z,16.79
2023-05-14T09:35:27.064Z,16.61
2023-05-14T09:37:54.225Z,16.34
2023-05-14T09:40:21.623Z,16.09
2023-05-14T09:42:49.151Z,16.18
2023-05-14T09:45:16.344Z,16.33
2023-05-14T09:47:43.185Z,16.49
2023-05-14T09:50:10.207Z,16.61
2023-05-14T09:52:37.249Z,16.84
2023-05-14T09:55:04.077Z,17.12
2023-05-14T09:57:30.944Z,17.25
2023-05-14T09:59:57.252Z,17.56
2023-05-14T10:02:25.721Z,17.65
2023-05-14T10:04:58.824Z,17.57
2023-05-14T10:07:27.326Z,17.73
2023-05-14T10:09:58.203Z,17.39
2023-05-14T10:12:29.244Z,17.03
2023-05-14T10:14:57.453Z,17.09
2023-05-14T10:17:27.109Z,17.05
2023-05-14T10:19:54.770Z,17.21
2023-05-14T10:22:25.610Z,16.82
2023-05-14T10:24:55.097Z,16.66
2023-05-14T10:27:22.506Z,16.40
2023-05-14T10:29:55.538Z,16.52
2023-05-14T10:32:24.397Z,16.61
2023-05-14T10:34:51.448Z,16.77
2023-05-14T10:37:21.882Z,16.69
2023-05-14T10:39:50.721Z,16.07
2023-05-14T10:42:18.460Z,16.22
2023-05-14T10:44:47.398Z,16.26
2023-05-14T10:47:16.722Z,16.25
2023-05-14T10:49:44.110Z,16.47
2023-05-14T10:52:11.838Z,16.37
2023-05-14T10:54:38.387Z,16.60
2023-05-14T10:57:09.802Z,16.70
2023-05-14T10:59:36.109Z,16.68
2023-05-14T11:02:05.088Z,16.58
2023-05-14T11:04:31.604Z,16.43
2023-05-14T11:06:58.257Z,16.58
2023-05-14T11:09:25.487Z,16.53
2023-05-14T11:11:51.916Z,16.52
2023-05-14T11:14:18.201Z,16.44
2023-05-14T11:16:44.705Z,16.27
2023-05-14T11:19:11.248Z,16.08
2023-05-14T11:21:37.838Z,15.81
2023-05-14T11:24:05.458Z,15.74
2023-05-14T11:26:32.003Z,15.69
2023-05-14T11:28:58.369Z,15.57
2023-05-14T11:31:25.396Z,15.71
2023-05-14T11:33:52.335Z,15.70
2023-05-14T11:36:18.630Z,15.61
2023-05-14T11:38:49.158Z,15.70
2023-05-14T11:41:16.081Z,15.94
2023-05-14T11:43:42.697Z,16.08
2023-05-14T11:46:16.006Z,16.21
2023-05-14T11:48:42.340Z,16.24
2023-05-14T11:51:09.398Z,16.34
2023-05-14T11:53:36.101Z,16.47
2023-05-14T11:56:03.116Z,16.47
2023-05-14T11:58:32.500Z,16.42
2023-05-14T12:00:58.923Z,16.20
2023-05-14T12:03:26.796Z,16.22
2023-05-14T12:05:56.788Z,16.27
2023-05-14T12:08:25.996Z,16.34
2023-05-14T12:10:55.825Z,16.24
2023-05-14T12:13:25.429Z,16.29
2023-05-14T12:15:56.604Z,16.27
2023-05-14T12:18:25.415Z,16.22
2023-05-14T12:20:52.171Z,16.14
2023-05-14T12:23:31.303Z,15.90
2023-05-14T12:26:06.020Z,16.02
2023-05-14T12:28:33.467Z,16.00
2023-05-14T12:31:01.611Z,16.05
2023-05-14T12:33:28.010Z,16.18
2023-05-14T12:35:54.831Z,16.29
2023-05-14T12:38:21.175Z,16.37
2023-05-14T12:40:47.563Z,16.38
2023-05-14T12:43:14.409Z,16.11
2023-05-14T12:45:41.212Z,15.99
2023-05-14T12:48:07.710Z,15.79
2023-05-14T12:50:34.086Z,15.81
2023-05-14T12:53:00.637Z,15.80
2023-05-14T12:55:26.959Z,15.48
2023-05-14T12:57:54.162Z,15.46
2023-05-14T13:00:20.492Z,15.48
2023-05-14T13:02:46.950Z,15.61
2023-05-14T13:05:13.344Z,15.66
2023-05-14T13:07:40.988Z,15.74
2023-05-14T13:10:08.063Z,15.93
2023-05-14T13:12:34.608Z,16.18
2023-05-14T13:15:00.943Z,16.35
2023-05-14T13:17:27.387Z,16.35
2023-05-14T13:19:53.744Z,16.50
2023-05-14T13:22:20.132Z,16.64
2023-05-14T13:24:46.622Z,16.78
2023-05-14T13:27:13.083Z,16.68
2023-05-14T13:29:41.765Z,16.76
2023-05-14T13:32:08.595Z,17.10
2023-05-14T13:34:36.205Z,17.17
2023-05-14T13:37:02.565Z,17.63
2023-05-14T13:39:28.894Z,17.92
2023-05-14T13:41:57.004Z,18.46
2023-05-14T13:44:23.595Z,19.05
2023-05-14T13:46:50.110Z,19.51
2023-05-14T13:49:16.623Z,19.64
2023-05-14T13:51:42.965Z,19.32
2023-05-14T13:54:10.268Z,19.16
2023-05-14T13:56:36.662Z,19.15
2023-05-14T13:59:03.537Z,18.73
2023-05-14T14:01:33.132Z,18.36
2023-05-14T14:03:59.540Z,17.88
2023-05-14T14:06:27.214Z,17.31
2023-05-14T14:08:54.880Z,17.08
2023-05-14T14:11:21.884Z,17.03
2023-05-14T14:13:48.242Z,16.89
2023-05-14T14:16:15.850Z,16.76
2023-05-14T14:18:43.104Z,16.63
2023-05-14T14:21:10.866Z,16.60
2023-05-14T14:23:37.403Z,16.41
2023-05-14T14:26:04.079Z,16.02
2023-05-14T14:28:30.655Z,16.01
2023-05-14T14:30:56.954Z,15.92
2023-05-14T14:33:23.297Z,15.78
2023-05-14T14:35:49.625Z,15.88
2023-05-14T14:38:16.094Z,16.07
2023-05-14T14:40:42.510Z,16.10
2023-05-14T14:43:09.680Z,16.18
2023-05-14T14:45:36.175Z,16.17
2023-05-14T14:48:21.162Z,16.18
2023-05-14T14:50:47.648Z,16.07
2023-05-14T14:53:14.023Z,15.90
2023-05-14T14:55:41.194Z,15.73
2023-05-14T14:58:07.508Z,15.79
2023-05-14T15:00:33.874Z,15.74
2023-05-14T15:03:00.633Z,15.64
2023-05-14T15:05:27.076Z,15.56
2023-05-14T15:07:54.275Z,15.52
2023-05-14T15:10:20.683Z,15.31
2023-05-14T15:12:47.025Z,15.14
2023-05-14T15:15:13.413Z,14.98
2023-05-14T15:17:40.911Z,14.98
2023-05-14T15:20:07.802Z,14.79
2023-05-14T15:22:34.216Z,14.84
2023-05-14T15:25:01.098Z,14.94
2023-05-14T15:27:27.755Z,15.19
2023-05-14T15:29:54.356Z,15.38
2023-05-14T15:32:20.758Z,15.48
2023-05-14T15:34:47.135Z,15.46
2023-05-14T15:37:13.420Z,15.47
2023-05-14T15:39:40.052Z,15.48
2023-05-14T15:42:06.770Z,15.57
2023-05-14T15:44:33.166Z,15.63
2023-05-14T15:46:59.709Z,15.69
2023-05-14T15:49:26.443Z,15.65
2023-05-14T15:51:52.775Z,15.62
2023-05-14T15:54:19.336Z,15.62
2023-05-14T15:56:46.493Z,15.58
2023-05-14T15:59:14.652Z,15.54
2023-05-14T16:01:41.483Z,15.57
2023-05-14T16:04:07.884Z,15.55
2023-05-14T16:06:34.371Z,15.64
2023-05-14T16:09:02.928Z,15.61
2023-05-14T16:11:30.045Z,15.72
2023-05-14T16:13:56.671Z,15.84
2023-05-14T16:16:23.298Z,15.79
2023-05-14T16:18:49.706Z,15.66
2023-05-14T16:21:16.164Z,15.69
2023-05-14T16:23:42.975Z,15.74
2023-05-14T16:26:09.902Z,15.62
2023-05-14T16:28:36.381Z,15.63
2023-05-14T16:31:03.841Z,15.56
2023-05-14T16:33:30.715Z,15.51
2023-05-14T16:35:57.029Z,15.39
2023-05-14T16:38:23.442Z,15.33
2023-05-14T16:40:50.101Z,15.29
2023-05-14T16:43:16.544Z,15.22
2023-05-14T16:45:43.285Z,15.23
2023-05-14T16:48:09.775Z,15.21
2023-05-14T16:50:36.264Z,15.21
2023-05-14T16:53:02.620Z,14.99
2023-05-14T16:55:29.162Z,14.79
2023-05-14T16:57:55.988Z,14.56
2023-05-14T17:00:22.527Z,14.40
2023-05-14T17:02:49.776Z,14.32
2023-05-14T17:05:16.639Z,14.46
2023-05-14T17:07:43.175Z,14.66
2023-05-14T17:10:10.401Z,14.78
2023-05-14T17:12:36.993Z,14.79
2023-05-14T17:15:05.672Z,14.79
2023-05-14T17:17:32.943Z,14.60
2023-05-14T17:19:59.684Z,14.53
2023-05-14T17:22:26.218Z,14.54
2023-05-14T17:24:52.650Z,14.60
2023-05-14T17:27:19.019Z,14.66
2023-05-14T17:29:45.553Z,14.64
2023-05-14T17:32:12.552Z,14.57
2023-05-14T17:34:39.829Z,14.53
2023-05-14T17:37:06.804Z,14.47
2023-05-14T17:39:33.240Z,14.47
2023-05-14T17:41:59.599Z,14.54
2023-05-14T17:44:26.099Z,14.53
2023-05-14T17:46:52.457Z,14.50
2023-05-14T17:49:18.801Z,14.49
2023-05-14T17:51:45.282Z,14.62
2023-05-14T17:54:12.106Z,14.73
2023-05-14T17:56:38.469Z,14.75
2023-05-14T17:59:04.982Z,14.69
2023-05-14T18:01:31.479Z,14.69
2023-05-14T18:03:57.881Z,14.64
2023-05-14T18:06:24.265Z,14.65
2023-05-14T18:08:50.638Z,14.68
2023-05-14T18:11:17.285Z,14.67
2023-05-14T18:13:44.116Z,14.69
2023-05-14T18:16:10.878Z,14.66
2023-05-14T18:18:37.233Z,14.67
2023-05-14T18:21:03.640Z,14.67
2023-05-14T18:23:29.959Z,14.65
2023-05-14T18:25:56.295Z,14.60
2023-05-14T18:28:23.096Z,14.50
2023-05-14T18:30:49.756Z,14.37
2023-05-14T18:33:16.268Z,14.42
2023-05-14T18:35:43.692Z,14.41
2023-05-14T18:38:11.945Z,14.41
2023-05-14T18:40:38.389Z,14.53
2023-05-14T18:43:04.802Z,14.63
2023-05-14T18:45:31.113Z,14.63
2023-05-14T18:47:57.527Z,14.50
2023-05-14T18:50:24.088Z,14.39
2023-05-14T18:52:50.436Z,14.42
2023-05-14T18:55:16.809Z,14.40
2023-05-14T18:57:43.609Z,14.27
2023-05-14T19:00:10.485Z,14.28
2023-05-14T19:02:36.875Z,14.30
2023-05-14T19:05:03.383Z,14.38
2023-05-14T19:07:30.481Z,14.48
2023-05-14T19:09:56.870Z,14.57
2023-05-14T19:12:23.238Z,14.60
2023-05-14T19:14:49.615Z,14.61
2023-05-14T19:17:17.359Z,14.64
2023-05-14T19:19:45.392Z,14.56
2023-05-14T19:22:15.026Z,14.43
2023-05-14T19:24:41.409Z,14.45
2023-05-14T19:27:08.092Z,14.38
2023-05-14T19:29:36.759Z,14.41
2023-05-14T19:32:04.702Z,14.36
2023-05-14T19:34:31.160Z,14.31
2023-05-14T19:36:57.477Z,14.20
2023-05-14T19:39:23.793Z,14.15
2023-05-14T19:41:50.200Z,14.15
2023-05-14T19:44:16.594Z,14.10
2023-05-14T19:46:42.997Z,14.10
2023-05-14T19:49:09.436Z,14.16
2023-05-14T19:51:35.878Z,14.17
2023-05-14T19:54:02.314Z,14.12
2023-05-14T19:56:28.822Z,14.00
2023-05-14T19:58:55.199Z,13.91
2023-05-14T20:01:21.641Z,13.90
2023-05-14T20:03:48.354Z,13.89
2023-05-14T20:06:14.801Z,13.87
2023-05-14T20:08:41.503Z,13.87
2023-05-14T20:11:07.849Z,13.90
2023-05-14T20:13:36.042Z,13.96
2023-05-14T20:16:02.901Z,14.11
2023-05-14T20:18:29.243Z,14.14
2023-05-14T20:20:55.860Z,14.16
2023-05-14T20:23:22.301Z,14.25
2023-05-14T20:25:48.777Z,14.29
2023-05-14T20:28:15.189Z,14.20
2023-05-14T20:30:42.700Z,14.08
2023-05-14T20:33:09.375Z,13.94
2023-05-14T20:35:36.034Z,13.91
2023-05-14T20:38:03.849Z,13.92
2023-05-14T20:40:30.868Z,13.91
2023-05-14T20:42:57.423Z,13.91
2023-05-14T20:45:23.968Z,13.91
2023-05-14T20:47:50.583Z,13.82
2023-05-14T20:50:16.993Z,13.72
2023-05-14T20:52:43.346Z,13.71
2023-05-14T20:55:09.945Z,13.77
2023-05-14T20:57:36.678Z,13.78
2023-05-14T21:00:06.905Z,13.71
2023-05-14T21:02:33.412Z,13.72
2023-05-14T21:05:00.411Z,13.60
2023-05-14T21:07:28.915Z,13.67
2023-05-14T21:09:56.279Z,13.68
2023-05-14T21:12:22.751Z,13.64
2023-05-14T21:14:49.068Z,13.65
2023-05-14T21:17:15.994Z,13.65
2023-05-14T21:19:43.011Z,13.69
2023-05-14T21:22:09.571Z,13.69
2023-05-14T21:24:36.398Z,13.80
2023-05-14T21:27:02.785Z,13.83
2023-05-14T21:29:29.302Z,13.86
2023-05-14T21:31:56.222Z,13.84
2023-05-14T21:34:22.637Z,13.81
2023-05-14T21:36:49.039Z,13.79
2023-05-14T21:39:15.441Z,13.81
2023-05-14T21:41:42.615Z,13.77
2023-05-14T21:44:08.953Z,13.76
2023-05-14T21:46:35.417Z,13.84
2023-05-14T21:49:01.865Z,13.96
2023-05-14T21:51:28.285Z,13.86
2023-05-14T21:53:54.796Z,13.79
2023-05-14T21:56:22.471Z,13.70
2023-05-14T21:58:48.782Z,13.73
2023-05-14T22:01:15.308Z,13.67
2023-05-14T22:03:42.454Z,13.68
2023-05-14T22:06:08.887Z,13.55
2023-05-14T22:08:35.334Z,13.49
2023-05-14T22:11:01.754Z,13.42
2023-05-14T22:13:28.452Z,13.41
2023-05-14T22:16:01.538Z,13.46
2023-05-14T22:18:36.570Z,13.41
2023-05-14T22:21:03.041Z,13.48
2023-05-14T22:23:29.399Z,13.50
2023-05-14T22:25:55.941Z,13.53
2023-05-14T22:28:22.410Z,13.44
2023-05-14T22:30:48.739Z,13.40
2023-05-14T22:33:15.042Z,13.37
2023-05-14T22:35:41.550Z,13.36
2023-05-14T22:38:08.103Z,13.36
2023-05-14T22:40:34.402Z,13.34
2023-05-14T22:43:00.734Z,13.32
2023-05-14T22:45:27.224Z,13.38
2023-05-14T22:47:54.217Z,13.40
2023-05-14T22:50:20.681Z,13.46
2023-05-14T22:52:47.096Z,13.53
2023-05-14T22:55:13.463Z,13.57
2023-05-14T22:57:39.977Z,13.61
2023-05-14T23:00:06.976Z,13.59
2023-05-14T23:02:33.514Z,13.68
2023-05-14T23:04:59.995Z,13.71
2023-05-14T23:07:26.306Z,13.69
2023-05-14T23:09:52.574Z,13.65
2023-05-14T23:12:19.028Z,13.63
2023-05-14T23:14:45.960Z,13.64
2023-05-14T23:17:13.059Z,13.60
2023-05-14T23:19:39.455Z,13.69
2023-05-14T23:22:05.831Z,13.69
2023-05-14T23:24:32.174Z,13.69
2023-05-14T23:26:58.558Z,13.70
2023-05-14T23:29:24.912Z,13.65
2023-05-14T23:31:51.315Z,13.58
2023-05-14T23:34:22.019Z,13.63
2023-05-14T23:36:48.415Z,13.68
2023-05-14T23:39:14.822Z,13.70
2023-05-14T23:41:42.176Z,13.69
2023-05-14T23:44:08.498Z,13.61
2023-05-14T23:46:34.830Z,13.68
2023-05-14T23:49:01.169Z,13.63
2023-05-14T23:51:27.550Z,13.58
2023-05-14T23:53:58.170Z,13.64
2023-05-14T23:56:25.085Z,13.65
2023-05-14T23:58:51.786Z,13.68
